Time;durP1;ratioP1;P1;durP2;ratioP2;P2;SDS_P1;SDS_P2;PMS_P1;PMS_P2;Temp;Humidity;BMP_temperature;BMP_pressure;BME280_temperature;BME280_humidity;BME280_pressure;Samples;Min_cycle;Max_cycle;Signal;HPM_P1;HPM_P2
2021/12/05 00:23:07;;;;;;;102.60;41.63;;;-1.70;99.90;;;;;;4881153;29;20254;-80
2021/12/05 00:25:33;;;;;;;97.50;38.73;;;-1.70;99.90;;;;;;4899787;29;20656;-80
2021/12/05 00:33:52;;;;;;;138.97;51.50;;;-1.80;99.90;;;;;;4902412;29;20245;-80
2021/12/05 00:55:08;;;;;;;135.77;44.77;;;-2.00;99.90;;;;;;4899746;29;20179;-79
2021/12/05 01:15:48;;;;;;;100.07;35.47;;;-2.20;99.90;;;;;;4899042;29;20270;-79
2021/12/05 01:18:16;;;;;;;95.27;34.70;;;-2.20;99.90;;;;;;4899438;29;20659;-79
2021/12/05 01:20:53;;;;;;;76.87;29.93;;;-2.20;99.90;;;;;;4899043;29;20180;-79
2021/12/05 01:26:27;;;;;;;68.07;24.10;;;-2.20;99.90;;;;;;4871745;29;20784;-79
2021/12/05 05:50:14;;;;;;;28.77;12.67;;;-0.60;99.90;;;;;;4946311;29;20180;-80
2021/12/05 05:52:21;;;;;;;18.33;9.00;;;-0.60;99.90;;;;;;4942914;28;20219;-80
2021/12/05 05:54:49;;;;;;;20.80;10.03;;;-0.60;99.90;;;;;;4932855;29;20562;-79
2021/12/05 05:57:25;;;;;;;25.33;12.00;;;-0.60;99.90;;;;;;4923327;29;20196;-79
2021/12/05 06:00:07;;;;;;;33.07;14.90;;;-0.60;99.90;;;;;;4923294;29;20217;-80
2021/12/05 06:05:17;;;;;;;14.23;7.87;;;-0.50;99.90;;;;;;4925643;29;20197;-79
2021/12/05 06:07:45;;;;;;;20.23;8.67;;;-0.50;99.90;;;;;;4924237;29;20181;-79
2021/12/05 06:10:18;;;;;;;16.43;8.27;;;-0.50;99.90;;;;;;4924884;29;20185;-80
2021/12/05 06:12:45;;;;;;;16.10;8.43;;;-0.50;99.90;;;;;;4929700;29;20211;-81
2021/12/05 06:15:14;;;;;;;15.73;9.33;;;-0.50;99.90;;;;;;4923868;29;20637;-80
2021/12/05 06:17:41;;;;;;;17.57;9.23;;;-0.50;99.90;;;;;;4922708;29;20186;-79
2021/12/05 06:20:12;;;;;;;18.70;10.17;;;-0.50;99.90;;;;;;4933134;29;20173;-78
2021/12/05 06:22:37;;;;;;;19.77;9.67;;;-0.40;99.90;;;;;;4927681;29;20175;-79
2021/12/05 06:25:06;;;;;;;22.10;11.23;;;-0.40;99.90;;;;;;4933573;29;20273;-78
2021/12/05 06:27:32;;;;;;;31.07;14.70;;;-0.50;99.90;;;;;;4942923;29;20189;-78
2021/12/05 06:30:12;;;;;;;20.67;10.53;;;-0.40;99.90;;;;;;4936255;28;20676;-79
2021/12/05 06:46:15;;;;;;;19.03;9.70;;;-0.30;99.90;;;;;;4959356;28;20225;-81
2021/12/05 06:48:42;;;;;;;18.57;9.03;;;-0.30;99.90;;;;;;4946437;29;20213;-82
2021/12/05 06:51:10;;;;;;;17.60;8.80;;;-0.30;99.90;;;;;;4949633;28;20234;-78
2021/12/05 06:53:36;;;;;;;21.93;9.60;;;-0.30;99.90;;;;;;4951528;28;20196;-80
2021/12/05 06:56:02;;;;;;;18.73;9.40;;;-0.20;99.90;;;;;;4922325;28;20256;-82
2021/12/05 06:58:28;;;;;;;24.23;10.57;;;-0.20;99.90;;;;;;4947610;28;20308;-80
2021/12/05 07:00:54;;;;;;;18.63;9.53;;;-0.20;99.90;;;;;;4940374;28;20232;-81
2021/12/05 07:03:20;;;;;;;23.57;10.40;;;;;;;;;;4942660;28;20192;-81
2021/12/05 07:05:53;;;;;;;24.07;11.70;;;-0.20;99.90;;;;;;4959579;28;20198;-80
2021/12/05 07:08:23;;;;;;;23.60;11.80;;;-0.10;99.90;;;;;;4937950;29;20198;-82
2021/12/05 07:10:58;;;;;;;27.70;13.00;;;-0.10;99.90;;;;;;4957845;28;20206;-79
2021/12/05 07:26:24;;;;;;;96.07;28.40;;;0.10;99.90;;;;;;4914450;29;20214;-80
2021/12/05 07:42:43;;;;;;;27.80;11.87;;;0.30;99.90;;;;;;4935578;29;20446;-80
2021/12/05 07:45:19;;;;;;;56.30;19.70;;;0.40;99.90;;;;;;4918964;29;20600;-80
2021/12/05 07:47:49;;;;;;;30.80;12.97;;;0.40;99.90;;;;;;4930336;29;20559;-79
2021/12/05 07:50:16;;;;;;;37.07;13.40;;;0.40;99.90;;;;;;4935271;29;20187;-78
2021/12/05 07:52:49;;;;;;;24.77;11.37;;;0.40;99.90;;;;;;4931469;29;20189;-79
2021/12/05 07:55:25;;;;;;;51.20;16.00;;;0.40;99.90;;;;;;4931944;29;20191;-79
2021/12/05 07:58:08;;;;;;;20.47;9.97;;;0.50;99.90;;;;;;4934247;29;20253;-80
2021/12/05 08:00:51;;;;;;;47.47;14.13;;;;;;;;;;4935140;29;20203;-80
2021/12/05 08:14:28;;;;;;;29.30;12.47;;;;;;;;;;4935854;29;20233;-79
2021/12/05 08:16:56;;;;;;;30.07;12.90;;;0.60;99.90;;;;;;4934940;29;20572;-79
2021/12/05 08:19:22;;;;;;;26.83;12.20;;;0.70;99.90;;;;;;4933086;29;20279;-78
2021/12/05 08:21:57;;;;;;;32.67;12.43;;;1.10;99.90;;;;;;4962891;28;20345;-78
2021/12/05 08:24:36;;;;;;;21.83;12.07;;;0.80;99.90;;;;;;4953560;28;20198;-79
2021/12/05 08:27:04;;;;;;;29.47;14.23;;;0.80;99.90;;;;;;4938578;29;20191;-82
2021/12/05 08:29:39;;;;;;;23.57;11.83;;;0.90;99.90;;;;;;4949673;28;20218;-80
2021/12/05 08:32:56;;;;;;;30.60;15.03;;;0.90;99.90;;;;;;4945326;28;20223;-79
2021/12/05 09:38:35;;;;;;;26.73;13.87;;;1.60;99.90;;;;;;4961650;28;20244;-78
2021/12/05 10:01:42;;;;;;;32.17;16.67;;;;;;;;;;4979474;28;20619;-81
2021/12/05 10:02:24;;;;;;;105.47;45.47;;;;;;;;;;4987720;28;20210;-83
2021/12/05 10:10:19;;;;;;;45.20;20.80;;;;;;;;;;4985652;28;20190;-86
2021/12/05 10:16:12;;;;;;;50.27;21.60;;;2.20;99.90;;;;;;4979039;28;20190;-82
2021/12/05 10:26:43;;;;;;;34.60;18.33;;;2.40;99.90;;;;;;4967907;28;20194;-82
2021/12/05 10:37:54;;;;;;;49.90;21.57;;;2.30;99.90;;;;;;4964757;28;20195;-80
2021/12/05 10:40:35;;;;;;;32.97;16.07;;;2.40;99.90;;;;;;4968211;28;20243;-80
2021/12/05 10:43:09;;;;;;;36.10;16.30;;;2.70;99.90;;;;;;4945874;28;20178;-81
2021/12/05 10:45:46;;;;;;;37.77;18.60;;;2.50;99.90;;;;;;4961237;28;20183;-80
2021/12/05 10:48:25;;;;;;;36.57;18.87;;;2.50;99.90;;;;;;4953411;28;20243;-80
2021/12/05 10:51:01;;;;;;;34.43;17.90;;;2.60;99.90;;;;;;4952459;28;20210;-80
2021/12/05 10:53:35;;;;;;;39.17;19.57;;;2.30;99.90;;;;;;4969410;28;20272;-80
2021/12/05 10:56:06;;;;;;;42.67;18.97;;;2.30;99.90;;;;;;4940505;28;20195;-81
2021/12/05 10:58:51;;;;;;;59.43;21.27;;;2.60;99.90;;;;;;4949532;28;20191;-80
2021/12/05 11:01:32;;;;;;;45.97;18.07;;;2.40;99.90;;;;;;4944566;29;20192;-83
2021/12/05 11:04:10;;;;;;;47.70;21.43;;;2.30;99.90;;;;;;4966244;28;20193;-81
2021/12/05 11:06:57;;;;;;;45.17;24.47;;;2.80;99.90;;;;;;4961631;28;20198;-78
2021/12/05 11:09:24;;;;;;;108.47;42.47;;;;;;;;;;4967881;28;20187;-81
2021/12/05 11:12:03;;;;;;;66.07;32.47;;;2.40;99.90;;;;;;4960390;28;20198;-80
2021/12/05 11:14:36;;;;;;;129.97;55.70;;;2.60;99.90;;;;;;4946573;28;20176;-78
2021/12/05 11:17:11;;;;;;;89.20;37.67;;;2.40;99.90;;;;;;4953433;28;20254;-78
2021/12/05 11:19:42;;;;;;;185.40;57.87;;;2.40;99.90;;;;;;4966601;28;20279;-79
2021/12/05 11:22:15;;;;;;;122.27;35.50;;;2.40;99.90;;;;;;4966620;28;20325;-79
2021/12/05 11:24:46;;;;;;;86.03;27.53;;;2.60;99.90;;;;;;4948706;28;20181;-79
2021/12/05 11:27:12;;;;;;;57.13;24.27;;;;;;;;;;4948791;28;20186;-79
2021/12/05 11:29:51;;;;;;;43.67;23.03;;;2.20;99.90;;;;;;4966145;28;20206;-81
2021/12/05 11:32:22;;;;;;;268.53;93.20;;;2.20;99.90;;;;;;4967402;28;20230;-81
2021/12/05 11:34:49;;;;;;;94.23;32.83;;;;;;;;;;4969448;28;20199;-81
2021/12/05 11:37:15;;;;;;;99.97;33.17;;;2.10;99.90;;;;;;4949443;28;20229;-80
2021/12/05 11:39:41;;;;;;;118.70;36.73;;;;;;;;;;4967885;28;20270;-80
2021/12/05 11:42:12;;;;;;;133.57;36.83;;;2.00;99.90;;;;;;4946388;28;20317;-80
2021/12/05 11:44:39;;;;;;;100.40;29.73;;;;;;;;;;4950103;28;20274;-81
2021/12/05 11:47:17;;;;;;;59.00;24.80;;;2.50;99.90;;;;;;4953508;29;20227;-79
2021/12/05 11:49:44;;;;;;;131.90;38.77;;;2.30;99.90;;;;;;4957257;29;20659;-80
2021/12/05 11:52:10;;;;;;;176.10;45.70;;;1.00;99.90;;;;;;4950555;29;20203;-81
2021/12/05 11:54:46;;;;;;;72.50;27.47;;;2.10;99.90;;;;;;4947485;28;20196;-80
2021/12/05 11:57:15;;;;;;;142.73;45.00;;;2.30;99.90;;;;;;4932846;29;20183;-81
2021/12/05 11:59:41;;;;;;;222.80;54.67;;;;;;;;;;4933085;29;20216;-79
2021/12/05 12:02:20;;;;;;;70.30;27.63;;;2.20;99.90;;;;;;4948741;29;20187;-80
2021/12/05 12:05:07;;;;;;;87.67;31.23;;;2.20;99.90;;;;;;4932845;29;20176;-82
2021/12/05 12:07:43;;;;;;;93.27;34.33;;;2.20;99.90;;;;;;4949719;29;20304;-79
2021/12/05 12:10:27;;;;;;;54.73;22.83;;;2.20;99.90;;;;;;4929483;29;20186;-80
2021/12/05 12:13:01;;;;;;;79.37;30.90;;;2.20;99.90;;;;;;4938037;29;20188;-80
2021/12/05 12:15:29;;;;;;;89.83;32.57;;;2.10;99.90;;;;;;4940444;29;20243;-80
2021/12/05 12:18:04;;;;;;;52.37;25.63;;;2.10;99.90;;;;;;4943480;29;20190;-79
2021/12/05 12:20:33;;;;;;;83.10;33.23;;;2.10;99.90;;;;;;4952084;29;20240;-82
2021/12/05 12:22:58;;;;;;;99.83;44.47;;;2.10;99.90;;;;;;4974207;28;20179;-80
2021/12/05 12:25:30;;;;;;;63.53;27.67;;;2.00;99.90;;;;;;4971762;28;20199;-81
2021/12/05 12:27:56;;;;;;;62.73;32.73;;;2.00;99.90;;;;;;4965944;28;20177;-84
2021/12/05 12:30:27;;;;;;;44.23;22.40;;;2.00;99.90;;;;;;4958072;28;20190;-82
2021/12/05 12:33:30;;;;;;;53.80;23.67;;;1.90;99.90;;;;;;4990175;28;20190;-86
2021/12/05 12:35:56;;;;;;;43.37;20.30;;;;;;;;;;4919535;29;20172;-81
2021/12/05 12:38:44;;;;;;;39.10;20.00;;;1.90;99.90;;;;;;4928546;28;20203;-81
2021/12/05 12:41:22;;;;;;;48.73;21.60;;;1.60;99.90;;;;;;4973084;28;20203;-81
2021/12/05 12:43:53;;;;;;;63.03;25.50;;;2.00;99.90;;;;;;4972211;28;20183;-86
2021/12/05 12:46:36;;;;;;;47.90;22.83;;;1.90;99.90;;;;;;4989023;28;20174;-87
2021/12/05 12:49:14;;;;;;;56.07;23.97;;;2.10;99.90;;;;;;4986904;28;20208;-87
2021/12/05 12:51:48;;;;;;;79.73;34.30;;;2.10;99.90;;;;;;4957383;28;20599;-82
2021/12/05 12:54:25;;;;;;;105.97;38.73;;;1.90;99.90;;;;;;4959911;28;20188;-80
2021/12/05 12:57:12;;;;;;;82.97;29.73;;;1.90;99.90;;;;;;4969876;28;20187;-81
2021/12/05 12:59:57;;;;;;;117.23;37.53;;;1.70;99.90;;;;;;4959482;28;20178;-82
2021/12/05 13:10:52;;;;;;;103.17;41.23;;;;;;;;;;4966113;28;20713;-81
2021/12/05 13:13:26;;;;;;;106.63;45.83;;;1.60;99.90;;;;;;4952336;28;20735;-83
2021/12/05 13:15:57;;;;;;;236.73;69.37;;;1.60;99.90;;;;;;4951056;28;20191;-83
2021/12/05 13:18:30;;;;;;;99.30;36.57;;;1.40;99.90;;;;;;4951813;28;20190;-81
2021/12/05 13:21:04;;;;;;;128.10;43.47;;;1.40;99.90;;;;;;4968279;28;20230;-82
2021/12/05 13:23:45;;;;;;;177.73;51.73;;;1.40;99.90;;;;;;4964974;28;20217;-81
2021/12/05 13:26:33;;;;;;;174.20;81.40;;;1.50;99.90;;;;;;4950075;28;20726;-81
2021/12/05 13:29:22;;;;;;;158.70;77.37;;;1.60;99.90;;;;;;4968147;28;20185;-82
2021/12/05 13:31:50;;;;;;;81.83;34.20;;;1.50;99.90;;;;;;4951783;28;20699;-82
2021/12/05 13:34:24;;;;;;;90.70;42.23;;;1.70;99.90;;;;;;4934580;29;20186;-80
2021/12/05 13:36:51;;;;;;;107.67;47.80;;;;;;;;;;4949732;29;20682;-82
2021/12/05 13:39:34;;;;;;;106.07;47.50;;;1.50;99.90;;;;;;4953852;28;20217;-82
2021/12/05 13:42:13;;;;;;;88.37;38.43;;;1.10;99.90;;;;;;4951954;28;20711;-81
2021/12/05 13:45:21;;;;;;;77.70;34.27;;;1.70;99.90;;;;;;4953784;29;20226;-82
2021/12/05 13:48:09;;;;;;;103.13;38.57;;;1.40;99.90;;;;;;4922619;29;20234;-82
2021/12/05 13:50:35;;;;;;;86.50;37.50;;;;;;;;;;4960392;28;20278;-81
2021/12/05 13:53:07;;;;;;;86.57;38.03;;;1.30;99.90;;;;;;4931824;29;20213;-81
2021/12/05 13:55:46;;;;;;;94.67;36.40;;;1.40;99.90;;;;;;4934899;28;20191;-83
2021/12/05 14:01:00;;;;;;;79.73;35.20;;;;;;;;;;4953483;28;20194;-83
2021/12/05 14:04:03;;;;;;;74.80;32.97;;;1.30;99.90;;;;;;4955660;28;20210;-81
2021/12/05 14:06:38;;;;;;;79.60;35.90;;;1.60;99.90;;;;;;4949438;28;20185;-80
2021/12/05 14:09:21;;;;;;;121.97;49.67;;;1.30;99.90;;;;;;4951914;28;20272;-81
2021/12/05 14:11:58;;;;;;;89.17;41.17;;;1.30;99.90;;;;;;4925774;29;20508;-83
2021/12/05 14:14:35;;;;;;;114.57;48.23;;;1.30;99.90;;;;;;4941394;28;20209;-81
2021/12/05 14:17:05;;;;;;;71.57;34.53;;;1.30;99.90;;;;;;4937949;29;20193;-81
2021/12/05 14:19:33;;;;;;;81.30;41.17;;;1.30;99.90;;;;;;4951402;28;20215;-80
2021/12/05 14:22:02;;;;;;;76.33;35.17;;;1.30;99.90;;;;;;4955574;28;20238;-80
2021/12/05 14:24:32;;;;;;;70.23;34.03;;;1.20;99.90;;;;;;4968763;28;20241;-81
2021/12/05 14:27:02;;;;;;;71.33;35.07;;;1.20;99.90;;;;;;4967468;28;20546;-80
2021/12/05 14:29:30;;;;;;;86.40;37.60;;;1.20;99.90;;;;;;4964520;28;20269;-80
2021/12/05 14:32:01;;;;;;;81.53;39.90;;;1.20;99.90;;;;;;4965657;28;20617;-82
2021/12/05 14:34:28;;;;;;;95.00;46.57;;;1.20;99.90;;;;;;4966428;28;20245;-83
2021/12/05 14:36:58;;;;;;;87.60;41.33;;;1.20;99.90;;;;;;4957517;28;20278;-81
2021/12/05 14:39:32;;;;;;;126.10;65.70;;;1.30;99.90;;;;;;4953339;29;20246;-81
2021/12/05 14:42:02;;;;;;;103.47;49.27;;;1.20;99.90;;;;;;4941641;28;20659;-82
2021/12/05 14:44:30;;;;;;;117.13;47.83;;;1.20;99.90;;;;;;4968200;28;20241;-81
2021/12/05 14:47:11;;;;;;;120.33;54.87;;;1.00;99.90;;;;;;4954246;28;20268;-80
2021/12/05 14:49:47;;;;;;;78.37;36.73;;;1.20;99.90;;;;;;4960907;28;20210;-82
2021/12/05 14:52:17;;;;;;;97.20;42.43;;;1.20;99.90;;;;;;4956696;28;20706;-81
2021/12/05 14:54:45;;;;;;;106.57;45.07;;;1.20;99.90;;;;;;4972632;28;20230;-83
2021/12/05 14:57:15;;;;;;;141.27;59.73;;;1.20;99.90;;;;;;4956252;28;20206;-81
2021/12/05 14:59:43;;;;;;;139.70;61.50;;;1.20;99.90;;;;;;4971194;28;20210;-81
2021/12/05 15:02:09;;;;;;;203.03;89.27;;;;;;;;;;4955334;28;20546;-82
2021/12/05 15:04:40;;;;;;;121.27;52.50;;;1.20;99.90;;;;;;4945968;28;20189;-82
2021/12/05 15:07:07;;;;;;;97.90;42.63;;;1.20;99.90;;;;;;4959783;28;20186;-81
2021/12/05 15:09:42;;;;;;;149.63;58.93;;;1.20;99.90;;;;;;4942405;29;20735;-82
2021/12/05 15:12:16;;;;;;;295.67;121.00;;;1.20;99.90;;;;;;4938582;28;20260;-83
2021/12/05 15:14:44;;;;;;;254.47;91.83;;;1.10;99.90;;;;;;4958854;28;20383;-81
2021/12/05 15:17:13;;;;;;;170.20;60.30;;;1.20;99.90;;;;;;4957173;28;20194;-81
2021/12/05 15:19:46;;;;;;;190.60;67.67;;;1.00;99.90;;;;;;4969794;28;20651;-81
2021/12/05 15:22:14;;;;;;;166.60;67.83;;;1.20;99.90;;;;;;4969840;28;20258;-81
2021/12/05 15:24:48;;;;;;;189.00;81.00;;;1.10;99.90;;;;;;4933322;28;20658;-81
2021/12/05 15:27:17;;;;;;;163.73;64.60;;;1.10;99.90;;;;;;4952568;28;20217;-84
2021/12/05 15:29:49;;;;;;;145.50;57.60;;;1.10;99.90;;;;;;4948483;28;20186;-81
2021/12/05 15:32:20;;;;;;;144.43;57.27;;;1.10;99.90;;;;;;4951833;28;20218;-82
2021/12/05 15:34:56;;;;;;;134.60;56.83;;;1.10;99.90;;;;;;4945865;28;20187;-83
2021/12/05 15:37:24;;;;;;;162.03;67.77;;;1.20;99.90;;;;;;4968898;28;20200;-81
2021/12/05 15:39:53;;;;;;;179.00;76.17;;;1.10;99.90;;;;;;4974608;28;20200;-83
2021/12/05 15:42:28;;;;;;;169.27;66.40;;;0.80;99.90;;;;;;4962096;28;20197;-81
2021/12/05 15:44:56;;;;;;;149.73;60.03;;;1.10;99.90;;;;;;4968713;28;20214;-81
2021/12/05 15:47:34;;;;;;;130.73;53.37;;;1.10;99.90;;;;;;4951525;28;20192;-83
2021/12/05 15:50:13;;;;;;;115.03;48.53;;;1.20;99.90;;;;;;4919536;28;20187;-82
2021/12/05 15:52:39;;;;;;;128.13;55.77;;;;;;;;;;4946855;28;20235;-80
2021/12/05 15:55:25;;;;;;;100.53;46.20;;;0.90;99.90;;;;;;4950059;28;20202;-81
2021/12/05 15:58:09;;;;;;;85.70;39.50;;;1.00;99.90;;;;;;4962370;28;20194;-81
2021/12/05 16:00:38;;;;;;;124.93;52.80;;;1.00;99.90;;;;;;4951885;28;20193;-83
2021/12/05 16:03:17;;;;;;;188.77;68.47;;;1.50;99.90;;;;;;4951201;28;20643;-81
2021/12/05 16:05:45;;;;;;;99.10;43.33;;;0.90;99.90;;;;;;4950972;28;20243;-81
2021/12/05 16:08:15;;;;;;;95.13;40.87;;;1.00;99.90;;;;;;4953464;28;20181;-81
2021/12/05 16:10:43;;;;;;;114.90;44.23;;;1.00;99.90;;;;;;4951080;28;20209;-81
2021/12/05 16:13:17;;;;;;;99.90;42.00;;;1.10;99.90;;;;;;4971460;28;20182;-80
2021/12/05 16:15:46;;;;;;;217.17;77.87;;;0.90;99.90;;;;;;4969985;28;20267;-82
2021/12/05 16:18:12;;;;;;;117.83;48.90;;;;;;;;;;4951545;28;20189;-81
2021/12/05 16:20:40;;;;;;;100.40;43.47;;;;;;;;;;4942251;28;20226;-82
2021/12/05 16:23:11;;;;;;;99.03;44.77;;;1.00;99.90;;;;;;4947823;28;20261;-82
2021/12/05 16:26:00;;;;;;;113.90;54.10;;;1.20;99.90;;;;;;4965976;28;20722;-82
2021/12/05 16:28:38;;;;;;;119.87;47.53;;;1.00;99.90;;;;;;4961327;28;20183;-82
2021/12/05 16:31:07;;;;;;;100.67;46.70;;;1.00;99.90;;;;;;4951137;28;20218;-83
2021/12/05 16:33:34;;;;;;;113.03;50.37;;;0.90;99.90;;;;;;4969496;28;20197;-82
2021/12/05 16:36:00;;;;;;;112.53;47.73;;;;;;;;;;4974245;28;20190;-82
2021/12/05 16:38:31;;;;;;;106.07;43.40;;;1.00;99.90;;;;;;4943284;28;20225;-82
2021/12/05 16:41:08;;;;;;;157.10;58.13;;;1.20;99.90;;;;;;4940904;29;20191;-82
2021/12/05 16:43:39;;;;;;;177.30;62.13;;;1.00;99.90;;;;;;4953412;28;20171;-81
2021/12/05 16:46:33;;;;;;;135.53;48.47;;;1.00;99.90;;;;;;4967275;28;20321;-82
2021/12/05 16:49:02;;;;;;;146.10;49.90;;;1.00;99.90;;;;;;4958677;28;20203;-81
2021/12/05 16:51:31;;;;;;;113.60;45.03;;;1.00;99.90;;;;;;4967991;28;20198;-82
2021/12/05 16:54:04;;;;;;;227.07;70.70;;;1.00;99.90;;;;;;4948423;28;20195;-83
2021/12/05 16:56:48;;;;;;;118.33;48.90;;;0.80;99.90;;;;;;4967152;28;20258;-82
2021/12/05 16:59:22;;;;;;;157.17;60.13;;;0.90;99.90;;;;;;4969111;28;20694;-82
2021/12/05 17:02:20;;;;;;;125.37;53.13;;;0.90;99.90;;;;;;4965230;28;20191;-82
2021/12/05 17:05:03;;;;;;;103.90;42.30;;;0.80;99.90;;;;;;4944071;28;20186;-82
2021/12/05 17:07:54;;;;;;;84.87;36.53;;;1.00;99.90;;;;;;4971244;28;20182;-82
2021/12/05 17:10:20;;;;;;;94.07;42.53;;;;;;;;;;4962418;28;20261;-81
2021/12/05 17:12:48;;;;;;;209.73;66.53;;;1.00;99.90;;;;;;4957402;28;20321;-83
2021/12/05 17:15:22;;;;;;;133.63;48.37;;;1.00;99.90;;;;;;4967838;28;20190;-85
2021/12/05 17:17:49;;;;;;;125.10;45.87;;;0.90;99.90;;;;;;4946507;28;20186;-82
2021/12/05 17:20:37;;;;;;;93.83;39.20;;;1.00;99.90;;;;;;4949646;28;22095;-82
2021/12/05 17:23:24;;;;;;;88.17;37.27;;;0.90;99.90;;;;;;4952465;28;20187;-82
2021/12/05 17:25:53;;;;;;;96.57;44.37;;;1.00;99.90;;;;;;4951600;28;20181;-82
2021/12/05 17:28:39;;;;;;;139.23;61.03;;;1.00;99.90;;;;;;4969057;28;20186;-82
2021/12/05 17:31:09;;;;;;;139.00;57.83;;;1.00;99.90;;;;;;4948814;28;20223;-81
2021/12/05 17:33:49;;;;;;;112.57;46.10;;;1.00;99.90;;;;;;4968493;28;20197;-81
2021/12/05 17:36:24;;;;;;;110.10;45.33;;;1.00;99.90;;;;;;4949983;28;20678;-83
2021/12/05 17:38:53;;;;;;;105.80;46.07;;;0.90;99.90;;;;;;4935649;28;20191;-81
2021/12/05 17:41:20;;;;;;;100.57;46.30;;;;;;;;;;4952559;28;20190;-81
2021/12/05 17:43:46;;;;;;;113.40;47.37;;;0.90;99.90;;;;;;4969091;28;20190;-82
2021/12/05 17:46:13;;;;;;;102.87;45.37;;;0.90;99.90;;;;;;4954161;28;20233;-82
2021/12/05 17:48:39;;;;;;;101.27;45.13;;;1.20;99.90;;;;;;4963808;28;20650;-82
2021/12/05 17:51:06;;;;;;;96.50;42.90;;;1.00;99.90;;;;;;4952138;28;20217;-82
2021/12/05 17:53:35;;;;;;;104.37;45.67;;;0.80;99.90;;;;;;4954366;28;20217;-83
2021/12/05 17:56:09;;;;;;;105.13;45.43;;;;;;;;;;4954922;28;20186;-84
2021/12/05 18:03:56;;;;;;;103.83;43.87;;;;;;;;;;4968199;28;20568;-83
2021/12/05 18:06:23;;;;;;;143.83;52.90;;;0.90;99.90;;;;;;4947899;28;20257;-83
2021/12/05 18:08:50;;;;;;;91.80;41.70;;;;;;;;;;4948939;28;20225;-83
2021/12/05 18:11:22;;;;;;;107.23;45.23;;;0.90;99.90;;;;;;4947778;28;20310;-83
2021/12/05 18:13:52;;;;;;;91.80;41.67;;;0.90;99.90;;;;;;4967310;28;20180;-82
2021/12/05 18:16:23;;;;;;;94.37;40.17;;;;;;;;;;4943706;29;20285;-83
2021/12/05 18:18:51;;;;;;;85.17;38.47;;;1.30;99.90;;;;;;4942771;28;20186;-82
2021/12/05 18:21:18;;;;;;;90.93;42.30;;;;;;;;;;4963215;28;20234;-85
2021/12/05 18:23:44;;;;;;;99.57;46.63;;;0.90;99.90;;;;;;4950583;28;20190;-85
2021/12/05 18:26:11;;;;;;;106.10;49.80;;;0.90;99.90;;;;;;4962441;28;20189;-84
2021/12/05 18:28:38;;;;;;;166.50;65.90;;;0.90;99.90;;;;;;4950967;28;20190;-85
2021/12/05 18:31:07;;;;;;;145.13;57.37;;;0.90;99.90;;;;;;4959881;28;20738;-84
2021/12/05 18:33:33;;;;;;;169.37;79.30;;;;;;;;;;4954145;28;20283;-86
2021/12/05 18:36:00;;;;;;;132.50;65.33;;;0.80;99.90;;;;;;4952351;28;20575;-85
2021/12/05 18:38:26;;;;;;;103.80;46.20;;;;;;;;;;4931511;29;20184;-84
2021/12/05 18:40:57;;;;;;;104.27;45.77;;;0.90;99.90;;;;;;4935881;29;20207;-85
2021/12/05 18:43:27;;;;;;;137.13;55.60;;;;;;;;;;4930127;29;20244;-84
2021/12/05 18:45:54;;;;;;;134.37;55.00;;;;;;;;;;4945871;28;20207;-84
2021/12/05 18:48:20;;;;;;;137.67;61.10;;;;;;;;;;4937173;29;20605;-85
2021/12/05 18:50:48;;;;;;;88.90;39.73;;;0.90;99.90;;;;;;4930540;29;20701;-84
2021/12/05 18:53:16;;;;;;;142.17;66.63;;;0.90;99.90;;;;;;4913917;28;20276;-84
2021/12/05 18:55:43;;;;;;;138.07;50.93;;;;;;;;;;4952176;29;20178;-84
2021/12/05 18:58:10;;;;;;;142.23;52.53;;;;;;;;;;4920404;29;20184;-83
2021/12/05 19:06:36;;;;;;;105.10;45.10;;;0.90;99.90;;;;;;4921742;29;20202;-83
2021/12/05 19:09:16;;;;;;;123.13;49.67;;;0.90;99.90;;;;;;4953311;28;20179;-86
2021/12/05 19:11:47;;;;;;;128.63;52.77;;;;;;;;;;4947842;28;20207;-88
2021/12/05 19:14:25;;;;;;;118.43;49.00;;;0.90;99.90;;;;;;4977209;28;20173;-88
2021/12/05 19:16:56;;;;;;;168.47;64.13;;;0.90;99.90;;;;;;4983812;28;20238;-88
2021/12/05 19:19:22;;;;;;;123.47;55.20;;;;;;;;;;4988716;28;20179;-85
2021/12/05 19:21:49;;;;;;;108.73;53.60;;;0.70;99.90;;;;;;4986597;28;20302;-86
2021/12/05 19:24:18;;;;;;;94.87;43.63;;;0.80;99.90;;;;;;4972472;28;20200;-88
2021/12/05 19:26:45;;;;;;;88.10;40.80;;;;;;;;;;4977165;28;20210;-89
2021/12/05 19:29:14;;;;;;;134.87;52.97;;;;;;;;;;4967625;28;20163;-90
2021/12/05 19:31:40;;;;;;;83.17;40.00;;;;;;;;;;4972681;28;20288;-89
2021/12/05 19:34:06;;;;;;;99.37;47.03;;;;;;;;;;4984649;28;20246;-90
2021/12/05 19:36:32;;;;;;;97.27;43.87;;;;;;;;;;4966967;28;20183;-87
2021/12/05 19:38:58;;;;;;;114.77;49.83;;;;;;;;;;4973758;28;20644;-85
2021/12/05 19:41:29;;;;;;;100.73;43.80;;;0.90;99.90;;;;;;4963964;28;20195;-84
2021/12/05 19:43:56;;;;;;;103.73;47.33;;;;;;;;;;4962846;28;20191;-85
2021/12/05 19:46:23;;;;;;;152.87;60.53;;;0.90;99.90;;;;;;4946659;28;20668;-84
2021/12/05 19:48:50;;;;;;;118.40;50.77;;;0.90;99.90;;;;;;4962767;28;20245;-85
2021/12/05 19:51:19;;;;;;;95.50;42.90;;;0.90;99.90;;;;;;4935325;28;20726;-85
2021/12/05 19:53:47;;;;;;;116.17;53.20;;;0.90;99.90;;;;;;4948852;28;20194;-84
2021/12/05 19:56:18;;;;;;;85.93;40.17;;;0.90;99.90;;;;;;4947851;28;20191;-83
2021/12/05 19:58:46;;;;;;;105.17;43.17;;;;;;;;;;4968716;28;20217;-85
2021/12/05 20:01:13;;;;;;;81.60;37.43;;;0.90;99.90;;;;;;4956034;28;20280;-85
2021/12/05 20:03:43;;;;;;;145.37;55.17;;;0.90;99.90;;;;;;4942417;28;20193;-84
2021/12/05 20:06:13;;;;;;;115.70;48.57;;;0.90;99.90;;;;;;4951338;28;20176;-84
2021/12/05 20:08:50;;;;;;;114.83;49.17;;;0.90;99.90;;;;;;4946313;28;20203;-84
2021/12/05 20:11:16;;;;;;;89.90;43.50;;;1.00;99.90;;;;;;4943189;28;20218;-86
2021/12/05 20:13:43;;;;;;;106.40;48.00;;;;;;;;;;4943732;28;20265;-86
2021/12/05 20:16:12;;;;;;;104.50;48.37;;;;;;;;;;4957059;28;20191;-86
2021/12/05 20:18:46;;;;;;;110.33;48.73;;;0.90;99.90;;;;;;4962592;28;20198;-87
2021/12/05 20:21:12;;;;;;;123.33;52.73;;;;;;;;;;4957216;28;20258;-85
2021/12/05 20:23:56;;;;;;;119.00;54.37;;;0.90;99.90;;;;;;4928092;28;20187;-86
2021/12/05 20:26:31;;;;;;;125.07;56.10;;;1.00;99.90;;;;;;4940943;28;20601;-87
2021/12/05 20:28:58;;;;;;;134.17;53.90;;;0.90;99.90;;;;;;4962413;28;20193;-85
2021/12/05 20:31:26;;;;;;;202.40;73.70;;;1.00;99.90;;;;;;4961070;28;20635;-85
2021/12/05 20:33:55;;;;;;;108.97;46.47;;;1.00;99.90;;;;;;4929147;29;20253;-86
2021/12/05 20:36:22;;;;;;;105.70;44.57;;;;;;;;;;4942454;28;20216;-85
2021/12/05 20:38:48;;;;;;;88.43;43.93;;;;;;;;;;4931811;28;20187;-84
2021/12/05 20:41:15;;;;;;;112.47;49.50;;;;;;;;;;4949167;28;20282;-85
2021/12/05 20:43:41;;;;;;;150.30;58.17;;;;;;;;;;4933151;28;20286;-85
2021/12/05 20:46:08;;;;;;;136.00;56.37;;;;;;;;;;4957325;28;20198;-87
2021/12/05 20:48:37;;;;;;;104.30;49.53;;;;;;;;;;4932714;28;20259;-86
2021/12/05 20:51:04;;;;;;;115.17;47.73;;;1.00;99.90;;;;;;4938899;28;20218;-87
2021/12/05 20:53:30;;;;;;;101.40;44.43;;;;;;;;;;4946668;29;20282;-87
2021/12/05 20:55:56;;;;;;;101.50;43.67;;;;;;;;;;4959161;28;20270;-86
2021/12/05 20:58:23;;;;;;;91.33;42.77;;;;;;;;;;4943557;29;20201;-85
2021/12/05 21:00:55;;;;;;;106.10;46.20;;;1.00;99.90;;;;;;4955311;29;20262;-88
2021/12/05 21:03:21;;;;;;;110.47;51.73;;;;;;;;;;4938956;29;20590;-87
2021/12/05 21:05:50;;;;;;;109.10;50.13;;;1.10;99.90;;;;;;4938284;29;20202;-87
2021/12/05 21:08:16;;;;;;;106.03;48.93;;;;;;;;;;4947714;28;20181;-86
2021/12/05 21:10:50;;;;;;;108.13;48.23;;;1.10;99.90;;;;;;4945285;29;20276;-86
2021/12/05 21:13:27;;;;;;;104.80;50.17;;;1.10;99.90;;;;;;4942095;28;20601;-87
2021/12/05 21:16:01;;;;;;;98.20;44.50;;;1.10;99.90;;;;;;4931205;29;20179;-86
2021/12/05 21:18:27;;;;;;;101.00;47.77;;;;;;;;;;4926049;29;20280;-86
2021/12/05 21:21:04;;;;;;;103.53;46.87;;;1.10;99.90;;;;;;4928379;28;20243;-85
2021/12/05 21:23:31;;;;;;;97.50;44.00;;;;;;;;;;4952295;28;20242;-87
2021/12/05 21:25:57;;;;;;;83.53;40.57;;;;;;;;;;4937687;29;20214;-86
2021/12/05 21:28:23;;;;;;;82.37;41.93;;;;;;;;;;4954909;29;20229;-85
2021/12/05 21:30:50;;;;;;;90.03;42.10;;;;;;;;;;4938014;29;20653;-85
2021/12/05 21:33:18;;;;;;;96.47;44.63;;;1.10;99.90;;;;;;4955723;29;20172;-84
2021/12/05 21:35:44;;;;;;;106.10;49.87;;;;;;;;;;4956316;29;20179;-84
2021/12/05 21:38:11;;;;;;;129.43;54.83;;;;;;;;;;4940258;29;20648;-85
2021/12/05 21:40:41;;;;;;;109.80;49.77;;;1.10;99.90;;;;;;4955775;29;20176;-85
2021/12/05 21:43:08;;;;;;;91.83;44.83;;;;;;;;;;4955646;29;20640;-85
2021/12/05 21:45:34;;;;;;;89.67;42.40;;;1.10;99.90;;;;;;4938404;29;20191;-85
2021/12/05 21:48:00;;;;;;;96.67;43.87;;;;;;;;;;4938380;29;20580;-85